Time;durP1;ratioP1;P1;durP2;ratioP2;P2;SDS_P1;SDS_P2;PMS_P1;PMS_P2;Temp;Humidity;BMP_temperature;BMP_pressure;BME280_temperature;BME280_humidity;BME280_pressure;Samples;Min_cycle;Max_cycle;Signal;HPM_P1;HPM_P2
2023/07/05 00:00:06;;;;;;;21.48;10.75;;;;;;;;;;5018871;28;20042;-83
2023/07/05 00:02:32;;;;;;;20.30;10.18;;;;;;;;;;5019574;28;20041;-84
2023/07/05 00:04:59;;;;;;;18.63;9.60;;;;;;;;;;5022995;28;20129;-84
2023/07/05 00:07:26;;;;;;;21.67;10.48;;;;;;;;;;5016813;28;20115;-84
2023/07/05 00:09:52;;;;;;;21.13;10.27;;;;;;;;;;5014365;28;20215;-84
2023/07/05 00:12:20;;;;;;;20.42;10.23;;;;;;;;;;4996227;28;20042;-84
2023/07/05 00:14:46;;;;;;;22.15;10.70;;;;;;;;;;5016011;28;20042;-83
2023/07/05 00:17:13;;;;;;;18.92;10.10;;;;;;;;;;4999160;28;20533;-82
2023/07/05 00:19:41;;;;;;;19.92;9.82;;;;;;;;;;5015361;28;20120;-83
2023/07/05 00:22:08;;;;;;;20.70;10.02;;;;;;;;;;4997642;28;20042;-83
2023/07/05 00:24:35;;;;;;;19.17;9.85;;;;;;;;;;5015636;28;20475;-82
2023/07/05 00:27:02;;;;;;;20.55;10.45;;;;;;;;;;5026289;28;20030;-83
2023/07/05 00:29:29;;;;;;;21.13;10.38;;;;;;;;;;5011034;28;20046;-84
2023/07/05 00:31:56;;;;;;;19.33;10.15;;;;;;;;;;5025550;28;20056;-84
2023/07/05 00:34:22;;;;;;;22.52;10.35;;;;;;;;;;5027293;28;20149;-83
2023/07/05 00:36:49;;;;;;;19.75;9.88;;;;;;;;;;5014686;28;20109;-83
2023/07/05 00:39:16;;;;;;;18.55;9.82;;;;;;;;;;5013725;28;20133;-84
2023/07/05 00:41:42;;;;;;;20.63;10.68;;;;;;;;;;5014428;28;20045;-83
2023/07/05 00:44:11;;;;;;;21.63;10.52;;;;;;;;;;5012128;28;20407;-82
2023/07/05 00:46:46;;;;;;;19.67;10.05;;;;;;;;;;5038364;28;20061;-83
2023/07/05 00:49:14;;;;;;;20.33;9.88;;;;;;;;;;5004978;28;20045;-84
2023/07/05 00:51:47;;;;;;;20.83;10.40;;;;;;;;;;5022203;28;20057;-84
2023/07/05 00:54:16;;;;;;;22.27;10.45;;;;;;;;;;5039174;28;20099;-82
2023/07/05 00:56:50;;;;;;;19.48;10.38;;;;;;;;;;5019012;28;20104;-83
2023/07/05 00:59:17;;;;;;;19.67;10.55;;;;;;;;;;5019959;28;20053;-85
2023/07/05 01:01:44;;;;;;;21.33;10.30;;;;;;;;;;5018710;28;20096;-82
2023/07/05 01:04:29;;;;;;;22.38;10.30;;;;;;;;;;5006466;28;20049;-81
2023/07/05 01:06:56;;;;;;;20.25;10.23;;;;;;;;;;5020568;28;20044;-84
2023/07/05 01:09:26;;;;;;;17.40;10.15;;;;;;;;;;5022456;28;20054;-84
2023/07/05 01:12:02;;;;;;;20.55;10.30;;;;;;;;;;5021093;28;20046;-85
2023/07/05 01:14:37;;;;;;;20.85;10.15;;;;;;;;;;5021351;28;20046;-85
2023/07/05 01:17:07;;;;;;;22.38;10.40;;;;;;;;;;5021330;28;20133;-83
2023/07/05 01:19:36;;;;;;;18.48;10.10;;;;;;;;;;5021373;28;20134;-83
2023/07/05 01:22:10;;;;;;;22.95;11.65;;;;;;;;;;5005768;28;20053;-83
2023/07/05 01:24:36;;;;;;;18.92;10.77;;;;;;;;;;5022574;28;20058;-82
2023/07/05 01:27:03;;;;;;;22.60;11.30;;;;;;;;;;5006301;28;20538;-82
2023/07/05 01:29:59;;;;;;;19.10;10.65;;;;;;;;;;5006636;28;20066;-81
2023/07/05 01:32:29;;;;;;;24.85;11.93;;;;;;;;;;5012695;28;20064;-81
2023/07/05 01:34:59;;;;;;;21.27;11.73;;;;;;;;;;5015782;28;20060;-84
2023/07/05 01:37:29;;;;;;;23.10;11.05;;;;;;;;;;5015497;28;20042;-83
2023/07/05 01:39:57;;;;;;;22.92;11.65;;;;;;;;;;5016561;28;20054;-80
2023/07/05 01:42:26;;;;;;;27.60;12.98;;;;;;;;;;5016174;28;20057;-83
2023/07/05 01:44:53;;;;;;;24.83;12.65;;;;;;;;;;5015112;28;20455;-81
2023/07/05 01:47:35;;;;;;;22.00;12.05;;;;;;;;;;5025348;28;20045;-82
2023/07/05 01:50:08;;;;;;;26.45;12.35;;;;;;;;;;5025136;28;20460;-82
2023/07/05 01:52:53;;;;;;;20.85;10.93;;;;;;;;;;5008773;28;20091;-80
2023/07/05 01:55:35;;;;;;;22.38;12.02;;;;;;;;;;5026844;28;20045;-83
2023/07/05 01:58:08;;;;;;;20.52;11.88;;;;;;;;;;5010442;28;20399;-83
2023/07/05 02:00:37;;;;;;;20.85;11.52;;;;;;;;;;4991769;28;20072;-83
2023/07/05 02:03:08;;;;;;;21.08;10.55;;;;;;;;;;5008516;28;20046;-81
2023/07/05 02:05:37;;;;;;;23.15;11.60;;;;;;;;;;5009007;28;20577;-85
2023/07/05 02:08:04;;;;;;;21.60;11.68;;;;;;;;;;5026525;28;20042;-82
2023/07/05 02:10:32;;;;;;;21.25;11.20;;;;;;;;;;5009767;28;20049;-83
2023/07/05 02:13:00;;;;;;;23.20;12.35;;;;;;;;;;4993063;28;20532;-83
2023/07/05 02:15:26;;;;;;;20.70;11.15;;;;;;;;;;5009349;28;20394;-81
2023/07/05 02:17:53;;;;;;;23.17;12.07;;;;;;;;;;5004421;28;20137;-83
2023/07/05 02:20:20;;;;;;;22.40;11.95;;;;;;;;;;4998313;28;20045;-83
2023/07/05 02:22:49;;;;;;;21.20;11.23;;;;;;;;;;5000714;28;20510;-82
2023/07/05 02:25:15;;;;;;;23.60;12.10;;;;;;;;;;4985177;28;20311;-83
2023/07/05 02:27:42;;;;;;;28.15;12.30;;;;;;;;;;5007308;28;20042;-83
2023/07/05 02:30:09;;;;;;;23.98;12.40;;;;;;;;;;5001309;28;20114;-81
2023/07/05 02:32:36;;;;;;;29.10;12.05;;;;;;;;;;5041399;28;20037;-82
2023/07/05 02:35:03;;;;;;;21.88;11.90;;;;;;;;;;5031076;28;20045;-82
2023/07/05 02:37:31;;;;;;;24.65;12.70;;;;;;;;;;5015492;28;20303;-83
2023/07/05 02:39:58;;;;;;;25.00;12.82;;;;;;;;;;5013031;28;20057;-82
2023/07/05 02:42:25;;;;;;;31.70;12.55;;;;;;;;;;5013892;28;20076;-83
2023/07/05 02:44:51;;;;;;;26.77;13.40;;;;;;;;;;5018382;28;20069;-82
2023/07/05 02:47:19;;;;;;;24.50;13.38;;;;;;;;;;5043032;28;20131;-84
2023/07/05 02:49:46;;;;;;;26.30;14.07;;;;;;;;;;5021929;28;20097;-84
2023/07/05 02:52:13;;;;;;;23.77;13.15;;;;;;;;;;5046540;28;20149;-84
2023/07/05 02:54:40;;;;;;;24.80;13.57;;;;;;;;;;5009959;28;20050;-82
2023/07/05 02:57:06;;;;;;;27.05;14.23;;;;;;;;;;5043655;28;20385;-84
2023/07/05 02:59:33;;;;;;;26.23;14.70;;;;;;;;;;5039779;28;20045;-84
2023/07/05 03:02:00;;;;;;;25.08;13.40;;;;;;;;;;5031300;28;20033;-86
2023/07/05 03:04:27;;;;;;;27.13;13.90;;;;;;;;;;5062874;28;20071;-84
2023/07/05 03:06:55;;;;;;;28.00;14.63;;;;;;;;;;5009609;28;20562;-83
2023/07/05 03:09:22;;;;;;;25.02;13.60;;;;;;;;;;5017200;28;20089;-82
2023/07/05 03:11:49;;;;;;;24.83;13.60;;;;;;;;;;5013361;28;20351;-84
2023/07/05 03:14:15;;;;;;;25.52;13.43;;;;;;;;;;5005180;28;20047;-84
2023/07/05 03:16:42;;;;;;;28.55;14.30;;;;;;;;;;5007404;28;20140;-83
2023/07/05 03:19:12;;;;;;;28.52;13.98;;;;;;;;;;5007120;28;20117;-82
2023/07/05 03:21:43;;;;;;;25.17;13.25;;;;;;;;;;5007111;28;20124;-85
2023/07/05 03:24:12;;;;;;;26.75;13.57;;;;;;;;;;5028059;28;20129;-84
2023/07/05 03:26:41;;;;;;;25.95;13.95;;;;;;;;;;5009487;28;20075;-82
2023/07/05 03:29:07;;;;;;;27.00;14.05;;;;;;;;;;5012122;28;20048;-84
2023/07/05 03:31:34;;;;;;;24.83;13.45;;;;;;;;;;4976646;28;20300;-84
2023/07/05 03:34:01;;;;;;;25.85;12.93;;;;;;;;;;5000981;28;20045;-84
2023/07/05 03:36:27;;;;;;;25.00;13.05;;;;;;;;;;4988077;28;20064;-85
2023/07/05 03:38:54;;;;;;;28.23;12.60;;;;;;;;;;5013729;28;20038;-86
2023/07/05 03:41:21;;;;;;;24.85;12.82;;;;;;;;;;5014472;28;20049;-85
2023/07/05 03:43:48;;;;;;;23.58;12.18;;;;;;;;;;4998315;28;20069;-83
2023/07/05 03:46:16;;;;;;;21.08;11.55;;;;;;;;;;5041336;28;20061;-83
2023/07/05 03:48:43;;;;;;;23.70;11.75;;;;;;;;;;5058314;28;20048;-87
2023/07/05 03:51:11;;;;;;;20.90;11.57;;;;;;;;;;5029846;28;20066;-85
2023/07/05 03:53:37;;;;;;;22.00;11.52;;;;;;;;;;5031460;28;20127;-85
2023/07/05 03:56:05;;;;;;;21.77;11.23;;;;;;;;;;5036482;28;20049;-85
2023/07/05 03:58:31;;;;;;;21.52;10.77;;;;;;;;;;5049820;28;20049;-83
2023/07/05 04:01:03;;;;;;;25.38;12.25;;;;;;;;;;5013336;28;20598;-83
2023/07/05 04:03:30;;;;;;;20.38;11.15;;;;;;;;;;5001336;28;20042;-84
2023/07/05 04:05:56;;;;;;;18.50;10.60;;;;;;;;;;5000606;28;20220;-81
2023/07/05 04:08:23;;;;;;;20.88;11.07;;;;;;;;;;4984237;28;20403;-80
2023/07/05 04:10:50;;;;;;;21.75;10.57;;;;;;;;;;4993479;28;20068;-82
2023/07/05 04:13:16;;;;;;;19.75;10.35;;;;;;;;;;5011815;28;20672;-82
2023/07/05 04:15:43;;;;;;;21.02;10.55;;;;;;;;;;5060398;28;20071;-81
2023/07/05 04:18:10;;;;;;;19.27;9.60;;;;;;;;;;5043005;28;20052;-82
2023/07/05 04:20:39;;;;;;;22.77;10.63;;;;;;;;;;5061112;28;20110;-84
2023/07/05 04:23:12;;;;;;;18.85;10.68;;;;;;;;;;5037937;28;20048;-81
2023/07/05 04:25:39;;;;;;;22.55;10.57;;;;;;;;;;5053983;28;20152;-81
2023/07/05 04:28:05;;;;;;;17.67;10.15;;;;;;;;;;5013437;28;20061;-83
2023/07/05 04:30:32;;;;;;;22.33;10.30;;;;;;;;;;5012621;28;20054;-81
2023/07/05 04:32:59;;;;;;;19.50;9.77;;;;;;;;;;5013615;28;20046;-81
2023/07/05 04:35:25;;;;;;;19.85;9.93;;;;;;;;;;5020551;28;20068;-80
2023/07/05 04:37:52;;;;;;;19.98;9.75;;;;;;;;;;5006122;28;20054;-80
2023/07/05 04:40:20;;;;;;;20.60;9.48;;;;;;;;;;5007405;28;20045;-81
2023/07/05 04:42:47;;;;;;;17.63;9.20;;;;;;;;;;5044868;28;20045;-80
2023/07/05 04:45:15;;;;;;;18.05;9.60;;;;;;;;;;5008916;28;20057;-82
2023/07/05 04:47:42;;;;;;;18.13;9.32;;;;;;;;;;5001088;28;20565;-82
2023/07/05 04:50:12;;;;;;;22.15;9.38;;;;;;;;;;5008418;28;20121;-81
2023/07/05 04:52:38;;;;;;;18.10;8.45;;;;;;;;;;5033580;28;20565;-83
2023/07/05 04:55:05;;;;;;;16.80;8.07;;;;;;;;;;5036350;28;20097;-83
2023/07/05 04:57:32;;;;;;;15.98;8.60;;;;;;;;;;5014545;28;20056;-82
2023/07/05 05:00:04;;;;;;;17.00;7.38;;;;;;;;;;5011049;28;20137;-81
2023/07/05 05:02:32;;;;;;;16.02;8.00;;;;;;;;;;5014280;28;20259;-82
2023/07/05 05:04:59;;;;;;;16.80;8.68;;;;;;;;;;5014028;28;20077;-80
2023/07/05 05:07:26;;;;;;;13.13;7.65;;;;;;;;;;5001693;28;20049;-80
2023/07/05 05:09:53;;;;;;;16.08;7.63;;;;;;;;;;5019515;28;20117;-80
2023/07/05 05:12:19;;;;;;;15.45;8.27;;;;;;;;;;5017589;28;20067;-82
2023/07/05 05:14:46;;;;;;;16.15;8.02;;;;;;;;;;5019644;28;20365;-82
2023/07/05 05:17:13;;;;;;;20.40;7.40;;;;;;;;;;5025665;28;20079;-80
2023/07/05 05:19:39;;;;;;;13.77;6.75;;;;;;;;;;5013874;28;20048;-80
2023/07/05 05:22:06;;;;;;;14.48;7.00;;;;;;;;;;4998424;28;20044;-81
2023/07/05 05:24:32;;;;;;;12.98;6.75;;;;;;;;;;5005335;28;20501;-83
2023/07/05 05:26:59;;;;;;;14.10;6.57;;;;;;;;;;5033539;28;20040;-81
2023/07/05 05:29:26;;;;;;;9.95;5.53;;;;;;;;;;5005940;28;20045;-80
2023/07/05 05:31:52;;;;;;;14.00;5.90;;;;;;;;;;5033835;28;20187;-80
2023/07/05 05:34:19;;;;;;;10.88;5.40;;;;;;;;;;5017036;28;20037;-82
2023/07/05 05:36:45;;;;;;;8.43;4.70;;;;;;;;;;5058663;28;20045;-83
2023/07/05 05:39:12;;;;;;;9.98;4.32;;;;;;;;;;5051839;28;20045;-82
2023/07/05 05:41:38;;;;;;;8.75;4.43;;;;;;;;;;5037029;28;20049;-82
2023/07/05 05:44:05;;;;;;;9.07;4.32;;;;;;;;;;5030448;28;20457;-83
2023/07/05 05:46:33;;;;;;;7.35;4.20;;;;;;;;;;5015618;28;20061;-84
2023/07/05 05:49:00;;;;;;;8.65;4.35;;;;;;;;;;5031408;28;20046;-80
2023/07/05 05:51:26;;;;;;;9.52;4.03;;;;;;;;;;5019099;28;20041;-82
2023/07/05 05:53:53;;;;;;;10.85;4.20;;;;;;;;;;5019019;28;20041;-82
2023/07/05 05:56:20;;;;;;;9.18;4.20;;;;;;;;;;5044468;28;20045;-83
2023/07/05 05:58:46;;;;;;;7.57;3.30;;;;;;;;;;5017809;28;20049;-83
2023/07/05 06:01:13;;;;;;;7.28;3.50;;;;;;;;;;5009164;28;20033;-83
2023/07/05 06:03:40;;;;;;;7.40;3.58;;;;;;;;;;5040849;28;20065;-82
2023/07/05 06:06:06;;;;;;;6.47;3.30;;;;;;;;;;5038744;28;20037;-82
2023/07/05 06:08:33;;;;;;;6.00;3.25;;;;;;;;;;5038109;28;20053;-82
2023/07/05 06:11:02;;;;;;;7.07;3.63;;;;;;;;;;5058400;28;20045;-84
2023/07/05 06:13:30;;;;;;;5.82;3.50;;;;;;;;;;5038521;28;20063;-83
2023/07/05 06:15:57;;;;;;;5.85;3.35;;;;;;;;;;5022740;28;20041;-83
2023/07/05 06:18:40;;;;;;;5.30;3.05;;;;;;;;;;5040062;28;20053;-83
2023/07/05 06:21:06;;;;;;;7.78;3.03;;;;;;;;;;5035306;28;20108;-83
2023/07/05 06:23:33;;;;;;;5.80;3.22;;;;;;;;;;5020256;28;20190;-81
2023/07/05 06:25:59;;;;;;;7.47;3.47;;;;;;;;;;5054780;28;20227;-81
2023/07/05 06:28:26;;;;;;;7.57;3.20;;;;;;;;;;5034420;28;20056;-80
2023/07/05 06:30:52;;;;;;;5.15;2.88;;;;;;;;;;5022180;28;20044;-81
2023/07/05 06:33:19;;;;;;;5.13;2.80;;;;;;;;;;5036853;28;20040;-85
2023/07/05 06:35:47;;;;;;;5.35;3.00;;;;;;;;;;5047979;28;20045;-83
2023/07/05 06:38:16;;;;;;;4.82;2.80;;;;;;;;;;5045676;28;20523;-82
2023/07/05 06:40:43;;;;;;;7.50;3.03;;;;;;;;;;5037888;28;20075;-84
2023/07/05 06:43:09;;;;;;;5.05;2.83;;;;;;;;;;5049872;28;20041;-81
2023/07/05 06:45:36;;;;;;;6.50;3.33;;;;;;;;;;5008232;28;20087;-85
2023/07/05 06:48:04;;;;;;;9.82;3.40;;;;;;;;;;5027332;28;20041;-83
2023/07/05 06:50:30;;;;;;;5.47;3.10;;;;;;;;;;5013013;28;20049;-84
2023/07/05 06:52:57;;;;;;;5.40;2.97;;;;;;;;;;5028007;28;20052;-84
2023/07/05 06:55:42;;;;;;;4.70;3.00;;;;;;;;;;5014494;28;20456;-84
2023/07/05 06:58:09;;;;;;;5.50;2.67;;;;;;;;;;5024304;28;20029;-82
2023/07/05 07:00:36;;;;;;;4.70;2.80;;;;;;;;;;5024462;28;20053;-83
2023/07/05 07:03:02;;;;;;;5.57;2.63;;;;;;;;;;5025073;28;20062;-81
2023/07/05 07:05:30;;;;;;;4.10;2.33;;;;;;;;;;5026078;28;20117;-83
2023/07/05 07:07:57;;;;;;;3.97;2.55;;;;;;;;;;5028049;28;20046;-82
2023/07/05 07:10:27;;;;;;;6.20;2.63;;;;;;;;;;5026173;28;20050;-83
2023/07/05 07:12:54;;;;;;;4.25;2.10;;;;;;;;;;5025248;28;20077;-84
2023/07/05 07:15:20;;;;;;;4.93;2.63;;;;;;;;;;5025267;28;20046;-82
2023/07/05 07:17:47;;;;;;;4.03;2.13;;;;;;;;;;5026900;28;20030;-84
2023/07/05 07:20:14;;;;;;;5.13;2.42;;;;;;;;;;5019136;28;20049;-81
2023/07/05 07:22:41;;;;;;;4.90;2.58;;;;;;;;;;5013663;28;20045;-82
2023/07/05 07:25:08;;;;;;;5.97;2.30;;;;;;;;;;5016873;28;20057;-80
2023/07/05 07:27:34;;;;;;;4.70;2.30;;;;;;;;;;5002233;28;20077;-82
2023/07/05 07:30:02;;;;;;;5.95;2.45;;;;;;;;;;5022324;28;20141;-82
2023/07/05 07:32:28;;;;;;;6.80;2.33;;;;;;;;;;5023417;28;20058;-83
2023/07/05 07:34:55;;;;;;;7.43;2.70;;;;;;;;;;5018817;28;20080;-83
2023/07/05 07:37:22;;;;;;;7.63;2.58;;;;;;;;;;5017280;28;20041;-81
2023/07/05 07:39:48;;;;;;;4.43;2.25;;;;;;;;;;5018122;28;20110;-83
2023/07/05 07:42:15;;;;;;;4.18;2.38;;;;;;;;;;5017424;28;20106;-81
2023/07/05 07:44:42;;;;;;;4.18;2.25;;;;;;;;;;5011894;28;20038;-82
2023/07/05 07:47:11;;;;;;;3.92;1.95;;;;;;;;;;5003720;28;20041;-83
2023/07/05 07:49:38;;;;;;;3.95;2.08;;;;;;;;;;4988212;28;20058;-81
2023/07/05 07:52:07;;;;;;;6.07;2.10;;;;;;;;;;5006895;28;20041;-83
2023/07/05 07:54:34;;;;;;;4.78;1.75;;;;;;;;;;4995122;28;20045;-84
2023/07/05 07:57:00;;;;;;;4.13;2.00;;;;;;;;;;5019035;28;20037;-84
2023/07/05 07:59:27;;;;;;;3.35;2.00;;;;;;;;;;5009474;28;20061;-83
2023/07/05 08:01:54;;;;;;;6.30;2.72;;;;;;;;;;5039469;28;20077;-81
2023/07/05 08:04:20;;;;;;;5.05;2.05;;;;;;;;;;5023101;28;20124;-80
2023/07/05 08:06:51;;;;;;;5.05;2.20;;;;;;;;;;5022136;28;20145;-82
2023/07/05 08:09:19;;;;;;;4.10;1.90;;;;;;;;;;5020700;28;20050;-81
2023/07/05 08:11:46;;;;;;;5.38;2.22;;;;;;;;;;5038972;28;20104;-81
2023/07/05 08:14:18;;;;;;;3.70;1.95;;;;;;;;;;5021204;28;20038;-81
2023/07/05 08:16:45;;;;;;;3.78;2.10;;;;;;;;;;5021704;28;20461;-83
2023/07/05 08:19:12;;;;;;;4.38;1.88;;;;;;;;;;5029786;28;20096;-82
2023/07/05 08:21:42;;;;;;;3.40;1.90;;;;;;;;;;5011565;28;20492;-82
2023/07/05 08:24:10;;;;;;;4.88;2.33;;;;;;;;;;5007316;28;20109;-82
2023/07/05 08:26:42;;;;;;;5.18;2.20;;;;;;;;;;5018230;28;20064;-80
2023/07/05 08:29:08;;;;;;;7.40;2.38;;;;;;;;;;5020053;28;20529;-81
2023/07/05 08:31:35;;;;;;;4.03;1.90;;;;;;;;;;5021966;28;20045;-82
2023/07/05 08:34:05;;;;;;;4.25;2.00;;;;;;;;;;5019687;28;20041;-80
2023/07/05 08:36:35;;;;;;;3.67;2.10;;;;;;;;;;5004778;28;20137;-81
2023/07/05 08:39:05;;;;;;;4.07;1.70;;;;;;;;;;5020470;28;20469;-81
2023/07/05 08:41:44;;;;;;;5.78;2.05;;;;;;;;;;5007081;28;20053;-82
2023/07/05 08:44:11;;;;;;;2.95;1.75;;;;;;;;;;5017923;28;20049;-84
2023/07/05 08:46:38;;;;;;;3.83;1.90;;;;;;;;;;5023644;28;20056;-82
2023/07/05 08:49:12;;;;;;;4.10;1.67;;;;;;;;;;5025464;28;20569;-83
2023/07/05 08:51:41;;;;;;;7.82;1.63;;;;;;;;;;5024723;28;20045;-84
2023/07/05 08:54:13;;;;;;;5.20;2.22;;;;;;;;;;4999170;28;20045;-82
2023/07/05 08:56:39;;;;;;;5.38;1.90;;;;;;;;;;4997111;28;20045;-82
2023/07/05 08:59:21;;;;;;;4.32;1.70;;;;;;;;;;5015812;28;20074;-82
2023/07/05 09:01:50;;;;;;;5.03;1.90;;;;;;;;;;5018617;28;20049;-82
2023/07/05 09:04:34;;;;;;;5.57;1.75;;;;;;;;;;5000684;28;20142;-82
2023/07/05 09:07:04;;;;;;;2.75;1.60;;;;;;;;;;5003147;28;20104;-82
2023/07/05 09:09:49;;;;;;;2.95;1.70;;;;;;;;;;5003335;28;20072;-80
2023/07/05 09:12:22;;;;;;;5.97;1.83;;;;;;;;;;5022566;28;20117;-83
2023/07/05 09:14:58;;;;;;;3.72;1.83;;;;;;;;;;5024186;28;20073;-82
2023/07/05 09:17:36;;;;;;;3.97;1.40;;;;;;;;;;5025172;28;20080;-82
2023/07/05 09:20:22;;;;;;;5.22;1.60;;;;;;;;;;5014289;28;20101;-82
2023/07/05 09:22:49;;;;;;;3.17;1.50;;;;;;;;;;5017578;28;20046;-83
2023/07/05 09:25:18;;;;;;;3.50;1.60;;;;;;;;;;5022612;28;20042;-82
2023/07/05 09:27:49;;;;;;;3.42;1.60;;;;;;;;;;5021768;28;20105;-82
2023/07/05 09:30:19;;;;;;;2.63;1.52;;;;;;;;;;5021471;28;20082;-83
2023/07/05 09:32:51;;;;;;;2.58;1.60;;;;;;;;;;5021972;28;20057;-83
2023/07/05 09:35:20;;;;;;;2.28;1.42;;;;;;;;;;5022461;28;20148;-82
2023/07/05 09:37:52;;;;;;;2.97;1.60;;;;;;;;;;5020475;28;20395;-81
2023/07/05 09:40:25;;;;;;;4.13;1.77;;;;;;;;;;5021911;28;20062;-80
2023/07/05 09:43:07;;;;;;;2.22;1.42;;;;;;;;;;5009634;28;20080;-82
2023/07/05 09:45:33;;;;;;;5.97;1.80;;;;;;;;;;5007053;28;20054;-82
2023/07/05 09:48:02;;;;;;;3.72;1.58;;;;;;;;;;5013075;28;20565;-82
2023/07/05 09:50:29;;;;;;;2.95;1.40;;;;;;;;;;5016537;28;20080;-82
2023/07/05 09:52:58;;;;;;;3.38;1.30;;;;;;;;;;4998964;28;20042;-82
2023/07/05 09:55:28;;;;;;;5.10;1.55;;;;;;;;;;4983388;28;20053;-81
2023/07/05 09:57:57;;;;;;;2.30;1.42;;;;;;;;;;5001042;28;20388;-82
2023/07/05 10:00:34;;;;;;;7.43;2.08;;;;;;;;;;5020470;28;20565;-80
2023/07/05 10:03:11;;;;;;;4.18;1.65;;;;;;;;;;5002974;28;20064;-81
2023/07/05 10:05:49;;;;;;;2.67;1.40;;;;;;;;;;5028419;28;20065;-81
2023/07/05 10:08:16;;;;;;;3.38;1.40;;;;;;;;;;5014282;28;20053;-82
2023/07/05 10:10:43;;;;;;;2.53;1.48;;;;;;;;;;5013306;28;20050;-82
2023/07/05 10:13:14;;;;;;;3.58;1.63;;;;;;;;;;5011894;28;20050;-83
2023/07/05 10:15:45;;;;;;;6.18;1.48;;;;;;;;;;5027349;28;20064;-83
2023/07/05 10:18:28;;;;;;;8.85;1.58;;;;;;;;;;5001094;28;20053;-81
2023/07/05 10:21:00;;;;;;;2.88;1.55;;;;;;;;;;5001224;28;20042;-80
2023/07/05 10:23:30;;;;;;;3.03;1.45;;;;;;;;;;5018686;28;20049;-81
2023/07/05 10:26:01;;;;;;;5.20;1.88;;;;;;;;;;5002523;28;20054;-84
2023/07/05 10:28:29;;;;;;;5.18;1.85;;;;;;;;;;5005548;28;20138;-80
2023/07/05 10:31:01;;;;;;;4.13;1.83;;;;;;;;;;5025215;28;20052;-83
2023/07/05 10:33:29;;;;;;;5.07;1.88;;;;;;;;;;5005999;28;20049;-83
2023/07/05 10:36:05;;;;;;;3.88;1.75;;;;;;;;;;5004272;28;20053;-82
2023/07/05 10:38:31;;;;;;;;;;;;;;;;;;5005908;28;20049;-82
2023/07/05 10:41:00;;;;;;;3.75;1.70;;;;;;;;;;5026075;28;19921;-87
2023/07/05 10:43:28;;;;;;;5.47;1.70;;;;;;;;;;5008330;28;20313;-83
2023/07/05 10:45:56;;;;;;;3.47;1.58;;;;;;;;;;5038997;28;20518;-83
2023/07/05 10:48:25;;;;;;;3.60;1.50;;;;;;;;;;5023802;28;20502;-82
2023/07/05 10:50:52;;;;;;;2.97;1.30;;;;;;;;;;5026084;28;20053;-81
2023/07/05 10:53:21;;;;;;;1.65;1.10;;;;;;;;;;5025569;28;20406;-83
2023/07/05 10:55:51;;;;;;;3.78;1.20;;;;;;;;;;5024894;28;20046;-84
2023/07/05 10:58:20;;;;;;;5.82;1.10;;;;;;;;;;5023905;28;20042;-85
2023/07/05 11:00:56;;;;;;;4.43;1.17;;;;;;;;;;5025928;28;20061;-85
2023/07/05 11:03:33;;;;;;;3.30;1.17;;;;;;;;;;5026898;28;20065;-84
2023/07/05 11:06:00;;;;;;;5.47;1.45;;;;;;;;;;4998595;28;20034;-82
2023/07/05 11:08:29;;;;;;;3.47;1.10;;;;;;;;;;5015709;28;20046;-83
2023/07/05 11:10:58;;;;;;;7.30;1.52;;;;;;;;;;5017059;28;20046;-80
2023/07/05 11:13:27;;;;;;;2.92;1.20;;;;;;;;;;5023281;28;20073;-82
2023/07/05 11:15:53;;;;;;;5.57;1.17;;;;;;;;;;5021732;28;20061;-81
2023/07/05 11:18:25;;;;;;;2.58;1.10;;;;;;;;;;5017677;28;20517;-81
2023/07/05 11:20:55;;;;;;;2.25;1.15;;;;;;;;;;5019493;28;20053;-81
2023/07/05 11:23:40;;;;;;;6.28;1.23;;;;;;;;;;5018818;28;20050;-80
2023/07/05 11:26:07;;;;;;;4.03;1.00;;;;;;;;;;5017191;28;20065;-81
2023/07/05 11:28:41;;;;;;;3.65;1.17;;;;;;;;;;5006275;28;20045;-83
2023/07/05 11:31:08;;;;;;;3.25;1.17;;;;;;;;;;5030205;28;20033;-81
2023/07/05 11:33:35;;;;;;;2.47;1.17;;;;;;;;;;5033738;28;20090;-81
2023/07/05 11:36:08;;;;;;;2.42;1.30;;;;;;;;;;5032861;28;20064;-84
2023/07/05 11:38:35;;;;;;;2.33;1.13;;;;;;;;;;5005108;28;20530;-80
2023/07/05 11:41:05;;;;;;;3.03;1.20;;;;;;;;;;5016787;28;20498;-79
2023/07/05 11:43:37;;;;;;;2.15;1.10;;;;;;;;;;5016741;28;20050;-80
2023/07/05 11:46:23;;;;;;;3.35;1.10;;;;;;;;;;5004278;28;20065;-85
2023/07/05 11:48:50;;;;;;;1.30;0.90;;;;;;;;;;5005377;28;20084;-80
2023/07/05 11:51:22;;;;;;;1.85;1.00;;;;;;;;;;5020691;28;20045;-81
2023/07/05 11:54:04;;;;;;;2.55;1.10;;;;;;;;;;5019129;28;20053;-81
2023/07/05 11:56:56;;;;;;;2.10;1.00;;;;;;;;;;5003826;28;20030;-82
2023/07/05 11:59:24;;;;;;;3.45;1.20;;;;;;;;;;5021836;28;20046;-82
2023/07/05 12:01:51;;;;;;;1.65;0.95;;;;;;;;;;5003510;28;20057;-82
2023/07/05 12:04:20;;;;;;;1.90;1.10;;;;;;;;;;4996806;28;20041;-81
2023/07/05 12:06:47;;;;;;;3.15;1.15;;;;;;;;;;5006250;28;20077;-80
2023/07/05 12:09:21;;;;;;;2.05;1.00;;;;;;;;;;5007510;28;20046;-80
2023/07/05 12:11:53;;;;;;;5.13;1.02;;;;;;;;;;5022574;28;20134;-81
2023/07/05 12:14:20;;;;;;;2.50;1.08;;;;;;;;;;5002150;28;20053;-80
2023/07/05 12:16:47;;;;;;;2.63;1.17;;;;;;;;;;5017774;28;20307;-80
2023/07/05 12:19:22;;;;;;;2.35;1.08;;;;;;;;;;5023826;28;20089;-81
2023/07/05 12:21:49;;;;;;;;;;;;;;;;;;5020246;28;20046;-82
2023/07/05 12:24:16;;;;;;;2.22;1.20;;;;;;;;;;5021928;28;20040;-80
2023/07/05 12:26:43;;;;;;;3.55;1.45;;;;;;;;;;5020553;28;20525;-80
2023/07/05 12:29:22;;;;;;;3.92;1.15;;;;;;;;;;5019907;28;20048;-80
2023/07/05 12:32:01;;;;;;;2.95;1.25;;;;;;;;;;5018687;28;20049;-80
2023/07/05 12:34:28;;;;;;;3.58;1.10;;;;;;;;;;5022686;28;20073;-80
2023/07/05 12:36:55;;;;;;;4.40;1.08;;;;;;;;;;5004142;28;20306;-82
2023/07/05 12:39:22;;;;;;;1.40;1.00;;;;;;;;;;5002952;28;20046;-82
2023/07/05 12:41:58;;;;;;;2.95;1.40;;;;;;;;;;5019417;28;20042;-81
2023/07/05 12:44:25;;;;;;;2.30;1.20;;;;;;;;;;5032944;28;20057;-81
2023/07/05 12:46:52;;;;;;;4.30;1.40;;;;;;;;;;5010193;28;20046;-81
2023/07/05 12:49:20;;;;;;;3.97;1.30;;;;;;;;;;4991326;28;20042;-82
2023/07/05 12:51:51;;;;;;;3.10;1.52;;;;;;;;;;5007415;28;20032;-83
2023/07/05 12:54:18;;;;;;;1.75;1.17;;;;;;;;;;5023818;28;20049;-82
2023/07/05 12:56:49;;;;;;;3.08;1.50;;;;;;;;;;5012316;28;20054;-81
2023/07/05 12:59:22;;;;;;;5.20;1.33;;;;;;;;;;5009930;28;20045;-82
2023/07/05 13:02:05;;;;;;;6.10;1.80;;;;;;;;;;5027484;28;20117;-81
2023/07/05 13:04:37;;;;;;;2.33;1.40;;;;;;;;;;5026318;28;20049;-81
2023/07/05 13:07:05;;;;;;;2.42;1.58;;;;;;;;;;5036809;28;20299;-84
2023/07/05 13:09:40;;;;;;;2.65;1.70;;;;;;;;;;5036665;28;20064;-82
2023/07/05 13:12:09;;;;;;;3.22;1.80;;;;;;;;;;5019256;28;20045;-82
2023/07/05 13:14:37;;;;;;;2.67;1.40;;;;;;;;;;5018303;28;20051;-81
2023/07/05 13:17:11;;;;;;;2.90;1.58;;;;;;;;;;5017034;28;20075;-80
2023/07/05 13:19:39;;;;;;;2.13;1.20;;;;;;;;;;5016618;28;20046;-83
2023/07/05 13:22:24;;;;;;;3.45;2.00;;;;;;;;;;5019853;28;20045;-80
2023/07/05 13:24:51;;;;;;;3.15;1.58;;;;;;;;;;5019843;28;20057;-81
2023/07/05 13:27:20;;;;;;;1.90;1.38;;;;;;;;;;5017401;28;20072;-75
2023/07/05 13:29:47;;;;;;;2.05;1.45;;;;;;;;;;5028358;28;20049;-76
2023/07/05 13:32:40;;;;;;;2.53;1.42;;;;;;;;;;4997108;28;20207;-76
2023/07/05 13:35:07;;;;;;;5.10;1.40;;;;;;;;;;5022253;28;20639;-76
2023/07/05 13:37:34;;;;;;;2.70;1.60;;;;;;;;;;5011538;28;20056;-77
2023/07/05 13:40:09;;;;;;;5.53;1.75;;;;;;;;;;5032612;28;20040;-75
2023/07/05 13:42:37;;;;;;;2.80;1.73;;;;;;;;;;5022815;28;20041;-75
2023/07/05 13:45:11;;;;;;;3.65;1.63;;;;;;;;;;5020527;28;20125;-75
2023/07/05 13:47:38;;;;;;;4.72;1.80;;;;;;;;;;5026715;28;20049;-77
2023/07/05 13:50:05;;;;;;;3.13;1.67;;;;;;;;;;5011701;28;20044;-76
2023/07/05 13:52:32;;;;;;;1.85;1.50;;;;;;;;;;5021661;28;20149;-75
2023/07/05 13:54:58;;;;;;;3.72;1.70;;;;;;;;;;5006992;28;20037;-76
2023/07/05 13:57:26;;;;;;;4.82;1.65;;;;;;;;;;4996570;28;20065;-76
2023/07/05 13:59:53;;;;;;;3.05;1.77;;;;;;;;;;5009626;28;20065;-77
2023/07/05 14:02:37;;;;;;;3.03;1.70;;;;;;;;;;5020461;28;20153;-77
2023/07/05 14:05:04;;;;;;;2.97;1.52;;;;;;;;;;5023554;28;20430;-76
2023/07/05 14:07:31;;;;;;;1.92;1.50;;;;;;;;;;5025836;28;20064;-78
2023/07/05 14:09:59;;;;;;;2.20;1.40;;;;;;;;;;5006407;28;20050;-77
2023/07/05 14:12:29;;;;;;;3.38;1.88;;;;;;;;;;5021793;28;20125;-77
2023/07/05 14:14:55;;;;;;;2.85;1.60;;;;;;;;;;5018333;28;20045;-76
2023/07/05 14:17:22;;;;;;;3.03;1.80;;;;;;;;;;5025622;28;20042;-77
2023/07/05 14:19:50;;;;;;;3.67;2.10;;;;;;;;;;5029767;28;20052;-82
2023/07/05 14:22:23;;;;;;;5.68;1.92;;;;;;;;;;5028483;28;20048;-79
2023/07/05 14:24:52;;;;;;;5.03;2.20;;;;;;;;;;5030992;28;20069;-80
2023/07/05 14:27:20;;;;;;;3.17;2.05;;;;;;;;;;5035029;28;20052;-80
2023/07/05 14:29:47;;;;;;;2.72;1.73;;;;;;;;;;5033048;28;20046;-80
2023/07/05 14:32:14;;;;;;;3.30;2.05;;;;;;;;;;5033447;28;20120;-79
2023/07/05 14:34:43;;;;;;;3.35;2.30;;;;;;;;;;5033391;28;20041;-80
2023/07/05 14:37:11;;;;;;;4.82;2.28;;;;;;;;;;5032411;28;20421;-82
2023/07/05 14:39:38;;;;;;;4.05;2.30;;;;;;;;;;5034166;28;20042;-79
2023/07/05 14:42:05;;;;;;;3.47;2.22;;;;;;;;;;5034893;28;20164;-82
2023/07/05 14:44:31;;;;;;;4.63;2.33;;;;;;;;;;5028197;28;20064;-79
2023/07/05 14:47:22;;;;;;;5.82;1.95;;;;;;;;;;5009979;28;20503;-79